Time;durP1;ratioP1;P1;durP2;ratioP2;P2;SDS_P1;SDS_P2;PMS_P1;PMS_P2;Temp;Humidity;BMP_temperature;BMP_pressure;BME280_temperature;BME280_humidity;BME280_pressure;Samples;Min_cycle;Max_cycle;Signal;HPM_P1;HPM_P2
2022/03/10 00:01:41;;;;;;;45.20;17.55;;;;;;;-2.61;66.89;94497.69;5031004;28;20055;-46
2022/03/10 00:04:08;;;;;;;44.50;18.15;;;;;;;-2.74;67.30;94509.38;5030362;28;20045;-52
2022/03/10 00:06:37;;;;;;;43.07;16.60;;;;;;;-2.76;67.18;94505.44;5033879;28;20047;-49
2022/03/10 00:09:04;;;;;;;44.45;17.75;;;;;;;-2.68;66.81;94518.06;5070095;28;20386;-49
2022/03/10 00:11:31;;;;;;;46.63;17.75;;;;;;;-2.66;67.01;94518.53;5070634;28;20040;-52
2022/03/10 00:13:58;;;;;;;42.90;17.02;;;;;;;-2.71;66.91;94519.50;5082384;28;20048;-49
2022/03/10 00:16:25;;;;;;;40.28;16.65;;;;;;;-2.69;66.43;94517.28;5053430;28;20438;-49
2022/03/10 00:18:52;;;;;;;43.53;17.10;;;;;;;-2.69;66.46;94513.81;5070516;28;20044;-47
2022/03/10 00:21:19;;;;;;;46.40;16.83;;;;;;;-2.70;66.67;94509.53;5084988;28;20040;-51
2022/03/10 00:23:46;;;;;;;46.40;16.90;;;;;;;-2.75;65.98;94517.78;5070415;28;20048;-54
2022/03/10 00:26:12;;;;;;;45.28;16.67;;;;;;;-2.69;65.66;94517.28;5069684;28;20044;-53
2022/03/10 00:28:39;;;;;;;48.45;16.83;;;;;;;-2.71;65.63;94518.72;5044943;28;20044;-49
2022/03/10 00:31:06;;;;;;;46.20;15.43;;;;;;;-2.79;66.29;94511.47;5035293;28;20045;-46
2022/03/10 00:33:33;;;;;;;45.78;16.55;;;;;;;-2.81;66.50;94519.81;5030275;28;20091;-45
2022/03/10 00:35:59;;;;;;;41.90;16.33;;;;;;;-2.87;66.11;94526.47;5029711;28;20075;-51
2022/03/10 00:38:26;;;;;;;46.55;16.23;;;;;;;-2.98;67.12;94525.16;5030278;28;20052;-49
2022/03/10 00:40:53;;;;;;;49.63;17.75;;;;;;;-2.94;66.73;94526.13;5030213;28;20038;-52
2022/03/10 00:43:20;;;;;;;42.67;16.00;;;;;;;-3.01;66.80;94527.38;5029854;28;20050;-51
2022/03/10 00:45:49;;;;;;;45.13;16.45;;;;;;;-3.00;66.31;94530.84;5030267;28;20049;-49
2022/03/10 00:48:15;;;;;;;46.38;16.80;;;;;;;-2.98;66.17;94536.69;5029837;28;20075;-46
2022/03/10 00:50:42;;;;;;;43.13;15.95;;;;;;;-2.94;66.36;94532.28;5030032;28;20045;-48
2022/03/10 00:53:10;;;;;;;42.58;15.60;;;;;;;-3.01;66.19;94531.97;5029395;28;20052;-49
2022/03/10 00:55:37;;;;;;;39.73;15.20;;;;;;;-3.08;66.22;94531.63;5029750;28;20052;-55
2022/03/10 00:58:07;;;;;;;43.75;15.57;;;;;;;-3.11;66.23;94537.66;5027997;28;20070;-52
2022/03/10 01:00:33;;;;;;;42.72;17.35;;;;;;;-3.09;67.53;94532.75;5029622;28;20046;-47
2022/03/10 01:03:00;;;;;;;44.80;16.08;;;;;;;-3.10;67.02;94542.72;5029366;28;20048;-51
2022/03/10 01:05:27;;;;;;;43.47;17.02;;;;;;;-3.07;66.83;94536.69;5029855;28;20415;-54
2022/03/10 01:07:54;;;;;;;44.50;15.70;;;;;;;-3.08;66.89;94537.00;5054015;28;20036;-48
2022/03/10 01:10:21;;;;;;;43.30;15.80;;;;;;;-3.10;66.63;94539.22;5069123;28;20505;-46
2022/03/10 01:12:48;;;;;;;45.53;17.75;;;;;;;-3.28;68.07;94541.88;5069461;28;20048;-53
2022/03/10 01:15:20;;;;;;;46.85;17.27;;;;;;;-3.34;68.23;94540.44;5067605;28;20050;-51
2022/03/10 01:17:48;;;;;;;48.60;18.13;;;;;;;-3.35;68.61;94541.53;5069447;28;20404;-47
2022/03/10 01:20:16;;;;;;;45.43;16.60;;;;;;;-3.30;67.81;94546.75;5068911;28;20040;-48
2022/03/10 01:22:43;;;;;;;54.40;17.73;;;;;;;-3.28;67.96;94541.06;5069257;28;20044;-47
2022/03/10 01:25:10;;;;;;;52.00;17.92;;;;;;;-3.31;67.23;94537.13;5068042;28;20113;-48
2022/03/10 01:27:37;;;;;;;50.88;17.75;;;;;;;-3.34;67.32;94535.06;5055165;28;20079;-54
2022/03/10 01:30:06;;;;;;;48.63;16.80;;;;;;;-3.36;67.17;94534.59;5044402;28;20098;-46
2022/03/10 01:32:34;;;;;;;41.33;15.67;;;;;;;-3.37;67.26;94533.00;5028958;28;20049;-49
2022/03/10 01:35:02;;;;;;;46.03;16.92;;;;;;;-3.48;68.64;94529.00;5028815;28;20033;-48
2022/03/10 01:37:36;;;;;;;47.80;16.95;;;;;;;-3.45;68.62;94531.09;5029595;28;20104;-46
2022/03/10 01:40:11;;;;;;;50.78;17.50;;;;;;;-3.59;69.51;94525.06;5028301;28;20041;-46
2022/03/10 01:42:39;;;;;;;50.25;18.77;;;;;;;-3.73;69.63;94520.56;5029162;28;20099;-48
2022/03/10 01:45:07;;;;;;;49.17;17.47;;;;;;;-3.70;69.51;94527.19;5028850;28;20056;-55
2022/03/10 01:47:36;;;;;;;66.80;20.25;;;;;;;-3.64;69.21;94523.31;5029207;28;20041;-51
2022/03/10 01:50:03;;;;;;;87.57;22.85;;;;;;;-3.65;69.51;94529.75;5028629;28;20047;-49
2022/03/10 01:52:30;;;;;;;63.08;18.70;;;;;;;-3.67;69.36;94526.59;5029206;28;20128;-46
2022/03/10 01:54:58;;;;;;;51.92;17.35;;;;;;;-3.62;69.48;94526.47;5027598;28;20674;-52
2022/03/10 01:57:25;;;;;;;67.30;18.63;;;;;;;-3.59;69.87;94528.50;5028290;28;21744;-51
2022/03/10 01:59:54;;;;;;;80.25;21.45;;;;;;;-3.72;69.81;94521.34;5028800;28;20049;-52
2022/03/10 02:02:21;;;;;;;100.82;25.00;;;;;;;-3.68;70.01;94525.00;5027282;28;20051;-48
2022/03/10 02:04:48;;;;;;;97.53;23.38;;;;;;;-3.68;69.49;94533.84;5044299;28;20041;-49
2022/03/10 02:10:16;;;;;;;76.63;20.80;;;;;;;-3.82;69.64;94517.88;5068420;28;20044;-52
2022/03/10 02:12:45;;;;;;;66.93;19.55;;;;;;;-3.79;69.84;94519.13;5067855;28;20066;-55
2022/03/10 02:18:16;;;;;;;45.53;15.60;;;;;;;-3.87;69.26;94530.63;5068356;28;20052;-46
2022/03/10 02:20:43;;;;;;;46.22;16.15;;;;;;;-3.89;69.37;94524.78;5068815;28;20439;-48
2022/03/10 02:23:11;;;;;;;46.37;16.10;;;;;;;-3.83;69.31;94528.91;5068056;28;20041;-48
2022/03/10 02:25:39;;;;;;;47.05;16.67;;;;;;;-3.92;70.65;94522.72;5068871;28;20056;-53
2022/03/10 02:28:07;;;;;;;49.88;17.10;;;;;;;-3.92;70.54;94522.72;5068268;28;20149;-52
2022/03/10 02:30:34;;;;;;;45.70;16.30;;;;;;;-3.92;69.82;94520.81;5068719;28;20033;-53
2022/03/10 02:33:02;;;;;;;48.45;16.88;;;;;;;-3.91;69.85;94517.03;5068211;28;20580;-53
2022/03/10 02:35:29;;;;;;;58.10;16.47;;;;;;;-3.96;69.35;94519.88;5053855;28;20037;-53
2022/03/10 02:37:56;;;;;;;63.92;18.33;;;;;;;-3.99;69.83;94525.81;5033868;28;20053;-46
2022/03/10 02:40:24;;;;;;;66.70;18.20;;;;;;;-4.01;69.85;94523.44;5048169;28;20052;-49
2022/03/10 02:42:50;;;;;;;56.55;17.95;;;;;;;-3.95;69.28;94524.13;5063939;28;20037;-48
2022/03/10 02:45:21;;;;;;;69.05;21.02;;;;;;;-4.13;69.68;94522.44;5048013;28;20049;-46
2022/03/10 02:47:48;;;;;;;59.07;18.67;;;;;;;-4.08;69.83;94519.66;5048543;28;20048;-45
2022/03/10 02:50:15;;;;;;;50.70;18.10;;;;;;;-4.07;70.13;94521.22;5047741;28;20045;-49
2022/03/10 02:52:43;;;;;;;45.92;16.45;;;;;;;-4.08;70.49;94525.00;5051155;28;20041;-51
2022/03/10 02:55:10;;;;;;;45.80;16.05;;;;;;;-4.12;70.07;94524.84;5051492;28;20481;-45
2022/03/10 02:57:37;;;;;;;48.50;17.15;;;;;;;-4.19;70.38;94519.09;5052199;28;20512;-50
2022/03/10 03:00:08;;;;;;;43.73;15.97;;;;;;;-4.21;70.99;94523.97;5051273;28;20044;-51
2022/03/10 03:02:35;;;;;;;48.53;17.77;;;;;;;-4.18;71.38;94514.56;5051886;28;20037;-54
2022/03/10 03:05:04;;;;;;;41.90;15.68;;;;;;;-4.13;70.44;94512.50;5051621;28;20047;-48
2022/03/10 03:07:31;;;;;;;46.63;17.17;;;;;;;-4.18;70.46;94519.91;5060949;28;20036;-53
2022/03/10 03:09:57;;;;;;;43.95;16.58;;;;;;;-4.21;70.13;94518.63;5087274;28;20055;-48
2022/03/10 03:12:24;;;;;;;44.73;15.87;;;;;;;-4.22;70.37;94525.09;5069643;28;21662;-49
2022/03/10 03:14:52;;;;;;;44.90;16.67;;;;;;;-4.28;70.41;94529.00;5071619;28;20048;-45
2022/03/10 03:17:18;;;;;;;45.40;16.83;;;;;;;-4.28;70.05;94526.31;5085974;28;20079;-54
2022/03/10 03:19:45;;;;;;;44.95;16.17;;;;;;;-4.28;69.96;94529.78;5087156;28;20039;-47
2022/03/10 03:22:12;;;;;;;43.00;15.45;;;;;;;-4.34;69.97;94533.69;5071224;28;20047;-55
2022/03/10 03:24:39;;;;;;;41.60;15.33;;;;;;;-4.40;69.75;94526.88;5071614;28;20036;-50
2022/03/10 03:27:06;;;;;;;43.97;15.50;;;;;;;-4.44;69.55;94520.53;5086712;28;20063;-46
2022/03/10 03:29:33;;;;;;;43.45;15.07;;;;;;;-4.49;69.62;94526.78;5071072;28;20071;-46
2022/03/10 03:32:00;;;;;;;44.58;15.77;;;;;;;-4.51;69.28;94526.31;5070853;28;20044;-52
2022/03/10 03:34:26;;;;;;;40.00;15.02;;;;;;;-4.48;69.87;94524.94;5071454;28;20044;-52
2022/03/10 03:36:53;;;;;;;40.53;14.53;;;;;;;-4.53;69.55;94528.50;5033407;28;20050;-48
2022/03/10 03:39:20;;;;;;;40.58;14.23;;;;;;;-4.55;69.86;94522.66;5047488;28;20066;-53
2022/03/10 03:41:47;;;;;;;41.42;15.25;;;;;;;-4.58;69.86;94530.53;5051323;28;20049;-45
2022/03/10 03:44:14;;;;;;;37.17;13.98;;;;;;;-4.58;69.27;94527.84;5050323;28;20524;-46
2022/03/10 03:46:41;;;;;;;41.65;15.95;;;;;;;-4.59;69.63;94526.25;5049840;28;20520;-47
2022/03/10 03:49:10;;;;;;;42.90;15.13;;;;;;;-4.57;69.48;94537.47;5050615;28;20126;-52
2022/03/10 03:51:38;;;;;;;44.47;15.57;;;;;;;-4.59;69.18;94536.97;5050764;28;20075;-51
2022/03/10 03:54:06;;;;;;;42.65;16.00;;;;;;;-4.59;69.62;94537.75;5050557;28;20412;-53
2022/03/10 03:56:34;;;;;;;39.03;14.27;;;;;;;-4.63;69.20;94537.59;5051095;28;20106;-51
2022/03/10 03:59:01;;;;;;;38.33;14.45;;;;;;;-4.67;69.31;94536.63;5050048;28;20049;-45
2022/03/10 04:01:27;;;;;;;41.13;13.97;;;;;;;-4.67;69.84;94536.63;5049775;28;20045;-51
2022/03/10 04:03:55;;;;;;;38.38;13.38;;;;;;;-4.70;70.18;94526.50;5050243;28;20098;-46
2022/03/10 04:06:22;;;;;;;38.45;15.13;;;;;;;-4.68;69.91;94531.56;5050331;28;20155;-45
2022/03/10 04:08:49;;;;;;;42.25;15.88;;;;;;;-4.71;70.67;94534.84;5032858;28;20045;-49
2022/03/10 04:11:17;;;;;;;50.70;17.88;;;;;;;-4.68;71.40;94544.97;5049967;28;20262;-52
2022/03/10 04:13:44;;;;;;;48.83;17.00;;;;;;;-4.71;70.66;94540.19;5050599;28;20047;-51
2022/03/10 04:16:11;;;;;;;45.80;16.90;;;;;;;-4.74;71.42;94546.94;5048879;28;20676;-49
2022/03/10 04:18:38;;;;;;;43.72;17.05;;;;;;;-4.77;71.56;94547.53;5066054;28;20032;-46
2022/03/10 04:21:05;;;;;;;46.85;16.30;;;;;;;-4.82;71.47;94548.47;5048965;28;20055;-45
2022/03/10 04:23:31;;;;;;;41.00;15.82;;;;;;;-4.81;71.37;94546.56;5049143;28;20045;-45
2022/03/10 04:25:58;;;;;;;45.77;16.23;;;;;;;-4.86;71.50;94546.69;5049864;28;20071;-46
2022/03/10 04:28:25;;;;;;;44.00;15.15;;;;;;;-4.91;71.73;94547.63;5050558;28;20462;-56
2022/03/10 04:30:52;;;;;;;43.90;16.27;;;;;;;-4.89;71.85;94547.28;5050122;28;20427;-49
2022/03/10 04:33:21;;;;;;;44.85;16.10;;;;;;;-4.91;71.91;94552.97;5048114;28;20037;-48
2022/03/10 04:35:51;;;;;;;45.55;17.63;;;;;;;-4.90;72.11;94553.75;5047120;28;20071;-45
2022/03/10 04:38:19;;;;;;;44.27;16.43;;;;;;;-5.05;72.59;94555.69;5029788;28;20069;-53
2022/03/10 04:40:46;;;;;;;44.75;16.30;;;;;;;-5.12;72.91;94547.25;5045236;28;20048;-49
2022/03/10 04:43:14;;;;;;;46.00;16.92;;;;;;;-5.07;72.53;94549.84;5028775;28;20045;-46
2022/03/10 04:45:41;;;;;;;44.60;17.65;;;;;;;-5.06;72.56;94548.72;5029394;28;20144;-45
2022/03/10 04:48:09;;;;;;;46.95;18.30;;;;;;;-5.08;72.20;94552.81;5028810;28;20037;-45
2022/03/10 04:50:36;;;;;;;48.43;16.97;;;;;;;-5.10;72.75;94547.75;5029493;28;20044;-45
2022/03/10 04:53:03;;;;;;;45.92;17.63;;;;;;;-5.19;73.62;94548.75;5027635;28;20035;-53
2022/03/10 04:55:30;;;;;;;51.92;18.00;;;;;;;-5.18;73.21;94556.47;5029162;28;20059;-48
2022/03/10 04:57:57;;;;;;;52.05;17.90;;;;;;;-5.17;73.34;94554.59;5029433;28;20057;-54
2022/03/10 05:00:23;;;;;;;46.58;17.85;;;;;;;-5.19;73.41;94548.75;5043115;28;20444;-47
2022/03/10 05:02:50;;;;;;;43.17;16.27;;;;;;;-5.15;73.65;94547.88;5029420;28;20041;-45
2022/03/10 05:05:18;;;;;;;43.15;16.45;;;;;;;-5.26;73.49;94557.97;5028368;28;20045;-47
2022/03/10 05:07:46;;;;;;;42.72;16.75;;;;;;;-5.23;73.80;94549.38;5050799;28;20090;-49
2022/03/10 05:10:13;;;;;;;48.13;17.05;;;;;;;-5.22;73.53;94553.59;5068160;28;20049;-55
2022/03/10 05:12:56;;;;;;;44.67;16.48;;;;;;;-5.18;73.40;94539.66;5068976;28;20044;-48
2022/03/10 05:15:26;;;;;;;47.83;17.10;;;;;;;-5.27;73.91;94544.91;5067350;28;20048;-48
2022/03/10 05:17:54;;;;;;;43.22;17.15;;;;;;;-5.26;73.25;94547.28;5067663;28;20049;-48
2022/03/10 05:20:20;;;;;;;45.97;17.33;;;;;;;-5.31;74.39;94541.22;5066857;28;20097;-49
2022/03/10 05:22:50;;;;;;;46.22;16.35;;;;;;;-5.31;74.49;94536.69;5068541;28;20514;-46
2022/03/10 05:25:19;;;;;;;47.70;17.92;;;;;;;-5.62;75.40;94534.63;5067836;28;20063;-53
2022/03/10 05:27:47;;;;;;;47.40;17.03;;;;;;;-5.52;75.05;94533.63;5068608;28;20047;-50
2022/03/10 05:30:14;;;;;;;42.67;16.38;;;;;;;-5.42;75.12;94532.63;5042727;28;20036;-46
2022/03/10 05:32:41;;;;;;;47.30;18.20;;;;;;;-5.40;74.96;94525.09;5035440;28;20043;-48
2022/03/10 05:35:10;;;;;;;53.53;20.70;;;;;;;-5.36;74.37;94526.09;5027675;28;20057;-50
2022/03/10 05:37:40;;;;;;;43.55;17.65;;;;;;;-5.35;74.91;94532.22;5028842;28;20100;-49
2022/03/10 05:40:08;;;;;;;42.70;16.17;;;;;;;-5.29;74.26;94525.69;5027723;28;20592;-58
2022/03/10 05:42:40;;;;;;;41.65;15.68;;;;;;;-5.30;73.92;94524.09;5043702;28;20048;-47
2022/03/10 05:45:07;;;;;;;41.70;16.50;;;;;;;-5.31;74.03;94525.19;5027806;28;20060;-55
2022/03/10 05:47:35;;;;;;;42.10;15.68;;;;;;;-5.42;74.36;94529.97;5028513;28;20048;-55
2022/03/10 05:50:03;;;;;;;42.40;16.58;;;;;;;-5.43;74.79;94534.53;5026883;28;20037;-52
2022/03/10 05:52:30;;;;;;;44.07;16.37;;;;;;;-5.32;74.17;94529.75;5028124;28;20056;-46
2022/03/10 05:54:57;;;;;;;42.83;17.13;;;;;;;-5.24;73.79;94529.03;5027092;28;20055;-48
2022/03/10 05:57:24;;;;;;;40.95;16.02;;;;;;;-5.24;73.79;94531.72;5027285;28;20395;-45
2022/03/10 05:59:51;;;;;;;44.08;16.95;;;;;;;-5.22;73.38;94539.44;5027910;28;20119;-48
2022/03/10 06:02:18;;;;;;;43.08;16.55;;;;;;;-5.26;73.41;94533.91;5036800;28;20049;-55
2022/03/10 06:04:47;;;;;;;40.63;15.93;;;;;;;-5.22;72.57;94539.44;5032803;28;20064;-50
2022/03/10 06:07:14;;;;;;;40.10;15.73;;;;;;;-5.14;73.18;94535.28;5040767;28;20075;-55
2022/03/10 06:09:40;;;;;;;44.65;15.35;;;;;;;-4.99;72.65;94548.31;5067170;28;20048;-50
2022/03/10 06:12:09;;;;;;;42.22;15.27;;;;;;;-5.04;73.15;94537.72;5067558;28;20049;-46
2022/03/10 06:14:37;;;;;;;40.33;15.48;;;;;;;-4.97;73.25;94550.69;5068140;28;20454;-48
2022/03/10 06:17:04;;;;;;;42.47;15.90;;;;;;;-4.93;73.05;94557.03;5067395;28;20048;-48
2022/03/10 06:19:31;;;;;;;42.28;16.25;;;;;;;-4.96;72.69;94557.63;5067642;28;20044;-49
2022/03/10 06:21:58;;;;;;;47.60;15.65;;;;;;;-4.85;72.97;94557.13;5067978;28;20032;-55
2022/03/10 06:24:24;;;;;;;41.05;17.50;;;;;;;-4.75;72.66;94555.28;5066650;28;20385;-47
2022/03/10 06:26:51;;;;;;;44.75;17.90;;;;;;;-4.74;72.38;94554.19;5069428;28;20420;-45
2022/03/10 06:29:18;;;;;;;43.20;16.13;;;;;;;-4.76;72.24;94559.06;5053138;28;20054;-46
2022/03/10 06:31:44;;;;;;;39.78;15.93;;;;;;;-4.71;71.91;94556.25;5071760;28;20039;-49
2022/03/10 06:34:11;;;;;;;41.47;16.10;;;;;;;-4.60;71.36;94552.25;5070989;28;20053;-49
2022/03/10 06:36:38;;;;;;;43.72;15.65;;;;;;;-4.74;71.81;94559.56;5071556;28;20055;-53
2022/03/10 06:39:08;;;;;;;43.50;16.98;;;;;;;-4.57;72.04;94546.28;5071216;28;20040;-48
2022/03/10 06:41:35;;;;;;;41.20;16.10;;;;;;;-4.63;72.11;94563.56;5086427;28;20063;-46
2022/03/10 06:44:01;;;;;;;42.17;16.02;;;;;;;-4.68;72.17;94559.13;5070745;28;20145;-53
2022/03/10 06:46:28;;;;;;;44.75;16.38;;;;;;;-4.63;72.37;94566.25;5071259;28;20382;-47
2022/03/10 06:48:55;;;;;;;43.05;16.17;;;;;;;-4.49;71.76;94561.63;5086958;28;20047;-50
2022/03/10 06:51:22;;;;;;;42.33;16.48;;;;;;;-4.40;72.40;94560.91;5086009;28;20385;-48
2022/03/10 06:53:49;;;;;;;47.03;17.23;;;;;;;-4.21;71.82;94564.19;5071155;28;20040;-52
2022/03/10 06:56:16;;;;;;;46.47;17.15;;;;;;;-4.02;71.90;94556.72;5070691;28;20037;-50
2022/03/10 06:58:43;;;;;;;42.95;18.13;;;;;;;-3.88;71.56;94564.69;5071332;28;20044;-52
2022/03/10 07:01:10;;;;;;;49.35;18.35;;;;;;;-3.76;71.34;94557.94;5055080;28;20041;-46
2022/03/10 07:03:37;;;;;;;45.20;18.63;;;;;;;-3.70;71.03;94567.44;5030970;28;20053;-45
2022/03/10 07:06:04;;;;;;;44.23;16.57;;;;;;;-3.68;71.42;94573.28;5030471;28;20051;-49
2022/03/10 07:08:31;;;;;;;45.97;17.27;;;;;;;-3.53;71.39;94566.72;5031257;28;20049;-46
2022/03/10 07:10:58;;;;;;;46.20;18.10;;;;;;;-3.45;70.59;94565.97;5031476;28;20037;-49
2022/03/10 07:13:24;;;;;;;43.83;17.17;;;;;;;-3.19;70.36;94562.56;5030531;28;20188;-47
2022/03/10 07:15:55;;;;;;;49.20;20.10;;;;;;;-2.94;69.23;94564.50;5031580;28;20694;-54
2022/03/10 07:18:22;;;;;;;44.27;17.50;;;;;;;-2.88;69.31;94560.59;5030939;28;20042;-52
2022/03/10 07:20:48;;;;;;;41.78;16.75;;;;;;;-2.65;68.82;94558.53;5031788;28;20494;-46
2022/03/10 07:23:15;;;;;;;46.65;18.90;;;;;;;-2.44;68.50;94558.69;5031038;28;20049;-45
2022/03/10 07:25:43;;;;;;;45.63;17.98;;;;;;;-2.24;68.25;94551.88;5031428;28;20037;-55
2022/03/10 07:28:10;;;;;;;46.90;18.35;;;;;;;-2.07;67.73;94563.72;5046194;28;20048;-55
2022/03/10 07:30:37;;;;;;;41.60;16.40;;;;;;;-1.79;67.17;94558.75;5031237;28;20038;-51
2022/03/10 07:33:04;;;;;;;42.08;17.52;;;;;;;-1.17;65.95;94559.28;5031223;28;20049;-48
2022/03/10 07:35:31;;;;;;;46.78;19.48;;;;;;;1.85;58.33;94554.75;5031519;28;20042;-55
2022/03/10 07:37:59;;;;;;;42.58;18.95;;;;;;;5.82;47.59;94549.63;5030151;28;20441;-46
2022/03/10 07:40:26;;;;;;;46.63;19.40;;;;;;;7.45;43.16;94548.16;5030386;28;20205;-47
2022/03/10 07:42:54;;;;;;;42.60;19.77;;;;;;;9.47;37.48;94544.06;5031415;28;20044;-51
2022/03/10 07:45:21;;;;;;;40.45;19.58;;;;;;;11.56;33.96;94525.41;5045998;28;20373;-49
2022/03/10 07:47:48;;;;;;;36.22;19.33;;;;;;;11.80;32.86;94535.38;5046374;28;20453;-53
2022/03/10 07:50:15;;;;;;;35.67;19.13;;;;;;;12.44;32.28;94537.88;5030760;28;20041;-50
2022/03/10 07:52:41;;;;;;;39.80;20.17;;;;;;;13.52;30.20;94523.31;5031368;28;20037;-50
2022/03/10 07:55:13;;;;;;;34.87;19.60;;;;;;;14.71;27.77;94521.91;5030594;28;20064;-47
2022/03/10 07:57:41;;;;;;;33.03;19.67;;;;;;;14.14;28.05;94518.28;5031077;28;20050;-50
2022/03/10 08:00:09;;;;;;;32.13;19.92;;;;;;;14.47;27.53;94518.44;5029960;28;20500;-52
2022/03/10 08:02:36;;;;;;;33.58;20.10;;;;;;;14.99;26.95;94514.97;5032354;28;20521;-54
2022/03/10 08:05:07;;;;;;;36.17;21.55;;;;;;;14.71;27.11;94510.84;5048926;28;20405;-54
2022/03/10 08:07:34;;;;;;;35.03;20.50;;;;;;;15.09;26.81;94508.41;5067681;28;20401;-56
2022/03/10 08:10:05;;;;;;;36.60;21.13;;;;;;;16.42;24.92;94507.81;5048967;28;20055;-55
2022/03/10 08:12:33;;;;;;;41.53;22.98;;;;;;;15.74;24.64;94507.66;5050858;28;20048;-49
2022/03/10 08:15:03;;;;;;;34.38;21.30;;;;;;;17.22;24.25;94509.03;5050233;28;20055;-57
2022/03/10 08:17:30;;;;;;;34.65;22.33;;;;;;;15.63;25.87;94509.09;5050445;28;20416;-52
2022/03/10 08:19:57;;;;;;;36.57;22.13;;;;;;;17.19;24.35;94515.50;5050626;28;20455;-51
2022/03/10 08:22:27;;;;;;;34.10;21.00;;;;;;;18.96;22.77;94500.69;5049379;28;20519;-57
2022/03/10 08:24:53;;;;;;;35.53;20.42;;;;;;;18.90;21.73;94502.50;5050597;28;20055;-50
2022/03/10 08:27:20;;;;;;;35.08;20.50;;;;;;;18.76;22.07;94501.00;5050180;28;20063;-52
2022/03/10 08:29:47;;;;;;;32.70;21.15;;;;;;;18.40;22.33;94498.78;5050228;28;20052;-48
2022/03/10 08:32:14;;;;;;;31.87;20.13;;;;;;;17.68;22.55;94507.53;5049817;28;20033;-47
2022/03/10 08:34:40;;;;;;;30.90;19.48;;;;;;;19.48;21.60;94495.47;5050316;28;20044;-49
2022/03/10 08:37:07;;;;;;;29.65;18.88;;;;;;;20.82;19.86;94492.16;5049656;28;20037;-57
2022/03/10 08:39:34;;;;;;;29.17;17.95;;;;;;;19.87;20.47;94487.53;5050106;28;20090;-51
2022/03/10 08:42:01;;;;;;;26.33;17.50;;;;;;;20.46;19.85;94488.16;5049599;28;20078;-57
2022/03/10 08:44:28;;;;;;;26.53;17.13;;;;;;;22.66;18.33;94478.41;5049915;28;20047;-53
2022/03/10 08:46:55;;;;;;;24.42;17.15;;;;;;;22.14;18.03;94484.25;5050182;28;20398;-49
2022/03/10 08:49:22;;;;;;;27.02;17.20;;;;;;;20.75;19.46;94484.88;5081209;28;20037;-53
2022/03/10 08:51:50;;;;;;;30.25;19.00;;;;;;;22.43;18.70;94485.59;5050045;28;20041;-50
2022/03/10 08:54:19;;;;;;;30.42;19.70;;;;;;;22.44;18.31;94482.31;5049594;28;20369;-57
2022/03/10 08:56:46;;;;;;;29.30;19.07;;;;;;;23.40;17.08;94474.78;5049938;28;20053;-52
2022/03/10 08:59:13;;;;;;;35.92;19.40;;;;;;;24.85;15.64;94475.09;5080749;28;20106;-52
2022/03/10 09:01:40;;;;;;;28.00;18.80;;;;;;;23.83;16.58;94464.72;5043461;28;20047;-52
2022/03/10 09:04:07;;;;;;;32.78;18.45;;;;;;;23.30;16.77;94465.72;5039533;28;20059;-48
2022/03/10 09:06:35;;;;;;;26.35;17.92;;;;;;;23.91;16.39;94467.91;5048608;28;20477;-48
2022/03/10 09:09:03;;;;;;;25.60;16.87;;;;;;;24.41;16.22;94462.13;5067428;28;20093;-49
2022/03/10 09:11:30;;;;;;;26.98;16.35;;;;;;;23.04;16.65;94463.56;5068749;28;20072;-53
2022/03/10 09:13:57;;;;;;;25.77;15.38;;;;;;;25.21;15.21;94460.84;5069047;28;20038;-55
2022/03/10 09:16:26;;;;;;;20.50;13.77;;;;;;;26.24;13.92;94456.13;5067670;28;20808;-55
2022/03/10 09:18:53;;;;;;;17.92;12.00;;;;;;;26.30;13.51;94454.09;5068958;28;20093;-57
2022/03/10 09:21:19;;;;;;;19.13;12.23;;;;;;;27.93;12.14;94440.63;5083219;28;20032;-58
2022/03/10 09:23:46;;;;;;;19.08;11.88;;;;;;;24.62;13.73;94445.25;5067807;28;20045;-46
2022/03/10 09:26:13;;;;;;;16.30;11.70;;;;;;;25.94;12.96;94440.91;5068427;28;20046;-47
2022/03/10 09:28:42;;;;;;;16.70;11.23;;;;;;;26.56;12.75;94443.94;5067234;28;20033;-49
2022/03/10 09:31:15;;;;;;;16.50;11.38;;;;;;;24.83;13.21;94441.13;5068185;28;20044;-53
2022/03/10 09:33:42;;;;;;;17.37;10.70;;;;;;;25.18;12.97;94433.75;5068537;28;20044;-51
2022/03/10 09:36:09;;;;;;;15.20;10.18;;;;;;;25.79;11.62;94435.44;5068442;28;20039;-50
2022/03/10 09:38:35;;;;;;;13.00;9.43;;;;;;;27.60;10.57;94428.88;5068418;28;20436;-48
2022/03/10 09:41:02;;;;;;;14.77;9.80;;;;;;;27.68;10.10;94426.31;5068099;28;20044;-51
2022/03/10 09:43:31;;;;;;;13.25;9.15;;;;;;;29.05;9.55;94431.56;5068612;28;20052;-54
2022/03/10 09:45:59;;;;;;;12.33;8.63;;;;;;;28.40;9.74;94421.72;5068788;28;20083;-50
2022/03/10 09:48:27;;;;;;;12.18;9.25;;;;;;;26.68;10.84;94425.81;5062675;28;20593;-56
2022/03/10 09:50:55;;;;;;;13.18;8.68;;;;;;;21.43;13.41;94432.69;5056209;28;20040;-48
2022/03/10 09:53:26;;;;;;;12.98;8.70;;;;;;;19.13;15.55;94432.44;5067684;28;20454;-45
2022/03/10 09:55:54;;;;;;;13.05;8.57;;;;;;;18.77;16.15;94422.72;5068648;28;20040;-52
2022/03/10 09:58:21;;;;;;;11.80;7.60;;;;;;;19.42;15.68;94438.84;5068016;28;20403;-51
2022/03/10 10:00:48;;;;;;;12.60;7.97;;;;;;;16.43;17.05;94422.72;5058319;28;20033;-52
2022/03/10 10:03:15;;;;;;;12.27;8.15;;;;;;;16.14;19.02;94431.84;5034269;28;20087;-50
2022/03/10 10:05:42;;;;;;;17.48;8.40;;;;;;;16.44;17.97;94427.81;5052972;28;20098;-50
2022/03/10 10:08:13;;;;;;;13.23;7.97;;;;;;;17.19;17.85;94435.06;5066685;28;20040;-49
2022/03/10 10:10:49;;;;;;;14.67;7.77;;;;;;;17.97;17.54;94423.31;5073090;28;20404;-56
2022/03/10 10:13:28;;;;;;;13.10;7.40;;;;;;;22.74;13.74;94412.41;5072490;28;20048;-56
2022/03/10 10:15:58;;;;;;;10.75;6.80;;;;;;;22.50;12.87;94413.25;5073047;28;20052;-52
2022/03/10 10:18:26;;;;;;;12.27;7.90;;;;;;;21.07;14.19;94424.03;5072013;28;20848;-52
2022/03/10 10:21:18;;;;;;;10.93;7.05;;;;;;;19.99;14.73;94424.56;5072343;28;20044;-52
2022/03/10 10:23:47;;;;;;;11.30;6.90;;;;;;;23.01;12.53;94416.91;5072883;28;20044;-49
2022/03/10 10:26:14;;;;;;;13.68;8.00;;;;;;;20.52;14.40;94411.03;5072452;28;20036;-50
2022/03/10 10:28:47;;;;;;;10.30;6.72;;;;;;;22.89;12.61;94423.56;5072800;28;20154;-51
2022/03/10 10:31:19;;;;;;;11.15;6.57;;;;;;;19.97;13.77;94413.88;5072216;28;20528;-51
2022/03/10 10:34:09;;;;;;;22.23;7.55;;;;;;;20.56;13.55;94416.41;5072790;28;20037;-49
2022/03/10 10:36:37;;;;;;;10.00;6.87;;;;;;;20.92;13.87;94418.34;5071656;28;21480;-48
2022/03/10 10:39:12;;;;;;;10.68;6.80;;;;;;;21.05;14.05;94406.22;5070495;28;20048;-46
2022/03/10 10:41:41;;;;;;;10.25;6.40;;;;;;;22.34;13.37;94406.13;5072435;28;20055;-53
2022/03/10 10:44:12;;;;;;;9.45;6.10;;;;;;;22.90;12.52;94405.53;5071971;28;20044;-55
2022/03/10 10:46:41;;;;;;;10.73;6.25;;;;;;;20.11;14.31;94409.69;5072431;28;20067;-51
2022/03/10 10:49:19;;;;;;;11.13;6.33;;;;;;;19.24;15.14;94397.84;5071572;28;20048;-46
2022/03/10 10:51:51;;;;;;;10.05;6.32;;;;;;;15.56;17.57;94402.94;5072279;28;20040;-52
2022/03/10 10:54:21;;;;;;;10.05;6.90;;;;;;;16.38;17.18;94399.13;5071861;28;20817;-57
2022/03/10 10:56:53;;;;;;;11.02;6.57;;;;;;;21.81;13.52;94389.31;5072149;28;20055;-53
2022/03/10 10:59:35;;;;;;;10.93;6.47;;;;;;;17.82;15.80;94386.13;5071342;28;20055;-48
2022/03/10 11:02:20;;;;;;;9.60;5.70;;;;;;;22.79;12.61;94375.31;5040200;28;20049;-51
2022/03/10 11:04:53;;;;;;;10.23;6.63;;;;;;;15.13;17.59;94389.44;5047700;28;20114;-51
2022/03/10 11:07:22;;;;;;;8.88;5.97;;;;;;;18.62;15.23;94385.56;5058924;28;20037;-57
2022/03/10 11:09:51;;;;;;;9.23;6.10;;;;;;;23.13;12.36;94371.03;5071958;28;20294;-54
2022/03/10 11:12:19;;;;;;;8.65;5.60;;;;;;;27.09;10.61;94366.19;5071162;28;20044;-50
2022/03/10 11:14:47;;;;;;;8.83;5.73;;;;;;;17.58;15.09;94375.44;5070411;28;20044;-50
2022/03/10 11:17:15;;;;;;;10.43;6.05;;;;;;;20.92;13.43;94368.13;5071203;28;20127;-49
2022/03/10 11:19:48;;;;;;;9.50;5.85;;;;;;;20.98;13.42;94370.28;5071765;28;20093;-47
2022/03/10 11:22:34;;;;;;;7.90;5.20;;;;;;;22.99;11.81;94362.66;5071316;28;20083;-49
2022/03/10 11:25:27;;;;;;;6.20;3.67;;;;;;;22.92;11.65;94356.22;5083749;28;20045;-51
2022/03/10 11:27:57;;;;;;;6.00;3.63;;;;;;;22.03;12.44;94349.84;5071612;28;20098;-51
2022/03/10 11:30:25;;;;;;;6.95;4.05;;;;;;;22.12;12.33;94352.56;5071114;28;20051;-49